createdAt,value
2018-12-01T00:00:18.513Z,99076.66
2018-12-01T00:02:47.835Z,99075.19
2018-12-01T00:05:16.642Z,99076.74
2018-12-01T00:07:45.192Z,99074.91
2018-12-01T00:10:13.922Z,99077.67
2018-12-01T00:12:43.580Z,99082.97
2018-12-01T00:15:17.710Z,99083.36
2018-12-01T00:17:46.454Z,99079.00
2018-12-01T00:20:16.535Z,99082.73
2018-12-01T00:22:45.322Z,99090.36
2018-12-01T00:25:14.018Z,99091.30
2018-12-01T00:27:42.526Z,99092.42
2018-12-01T00:30:12.394Z,99098.65
2018-12-01T00:32:41.254Z,99092.19
2018-12-01T00:35:10.955Z,99094.83
2018-12-01T00:37:39.513Z,99096.86
2018-12-01T00:40:14.040Z,99098.03
2018-12-01T00:42:42.661Z,99100.79
2018-12-01T00:45:13.326Z,99098.30
2018-12-01T00:47:42.259Z,99101.77
2018-12-01T00:50:12.393Z,99106.35
2018-12-01T00:52:40.895Z,99105.88
2018-12-01T00:55:11.922Z,99108.97
2018-12-01T00:57:41.329Z,99104.30
2018-12-01T01:00:17.263Z,99113.79
2018-12-01T01:02:51.014Z,99113.41
2018-12-01T01:05:20.834Z,99108.23
2018-12-01T01:07:49.496Z,99111.69
2018-12-01T01:10:18.256Z,99113.52
2018-12-01T01:12:47.796Z,99112.58
2018-12-01T01:15:17.332Z,99110.76
2018-12-01T01:17:46.712Z,99051.91
2018-12-01T01:20:17.898Z,99115.81
2018-12-01T01:22:47.265Z,99114.95
2018-12-01T01:25:16.356Z,99120.17
2018-12-01T01:27:45.238Z,99117.48
2018-12-01T01:30:20.186Z,99122.05
2018-12-01T01:32:49.834Z,99128.43
2018-12-01T01:35:21.002Z,99128.93
2018-12-01T01:37:50.504Z,99127.90
2018-12-01T01:40:21.271Z,99127.45
2018-12-01T01:42:50.405Z,99127.52
2018-12-01T01:45:20.329Z,99096.53
2018-12-01T01:47:48.864Z,99124.91
2018-12-01T01:50:21.144Z,99123.93
2018-12-01T01:52:49.949Z,99124.64
2018-12-01T01:55:19.843Z,99125.20
2018-12-01T01:57:48.849Z,99120.17
2018-12-01T02:00:18.648Z,99124.26
2018-12-01T02:02:49.979Z,99127.28
2018-12-01T02:05:22.263Z,99121.77
2018-12-01T02:07:50.895Z,99121.73
2018-12-01T02:10:20.447Z,99120.44
2018-12-01T02:12:48.961Z,99120.17
2018-12-01T02:15:17.564Z,98942.56
2018-12-01T02:17:46.051Z,99112.03
2018-12-01T02:20:16.274Z,99115.11
2018-12-01T02:22:45.087Z,99107.64
2018-12-01T02:25:16.204Z,99105.73
2018-12-01T02:27:44.874Z,99105.08
2018-12-01T02:30:14.490Z,99101.14
2018-12-01T02:32:43.085Z,99102.27
2018-12-01T02:35:13.899Z,99103.82
2018-12-01T02:37:42.982Z,99099.12
2018-12-01T02:40:12.652Z,99090.52
2018-12-01T02:42:41.883Z,99092.03
2018-12-01T02:45:22.415Z,99084.56
2018-12-01T02:47:50.904Z,99091.41
2018-12-01T02:50:24.508Z,99091.77
2018-12-01T02:52:58.015Z,99095.73
2018-12-01T02:55:27.267Z,99093.00
2018-12-01T02:57:55.882Z,99093.63
2018-12-01T03:00:24.437Z,99106.12
2018-12-01T03:02:52.926Z,99106.03
2018-12-01T03:05:22.968Z,99101.06
2018-12-01T03:07:52.890Z,99093.39
2018-12-01T03:10:21.753Z,99086.66
2018-12-01T03:12:52.021Z,99078.95
2018-12-01T03:15:21.347Z,99077.78
2018-12-01T03:17:50.928Z,99078.80
2018-12-01T03:20:20.181Z,99081.09
2018-12-01T03:22:48.754Z,99084.21
2018-12-01T03:25:23.022Z,99083.07
2018-12-01T03:27:52.647Z,99086.92
2018-12-01T03:30:22.227Z,99085.45
2018-12-01T03:32:51.509Z,99091.21
2018-12-01T03:35:21.600Z,99093.77
2018-12-01T03:37:50.698Z,99096.16
2018-12-01T03:40:20.613Z,99093.98
2018-12-01T03:42:50.755Z,99094.51
2018-12-01T03:45:20.330Z,99092.45
2018-12-01T03:47:49.857Z,99089.22
2018-12-01T03:50:22.119Z,99091.48
2018-12-01T03:52:54.936Z,99086.66
2018-12-01T03:55:32.387Z,99089.80
2018-12-01T03:58:01.500Z,99086.33
2018-12-01T04:00:31.279Z,99094.41
2018-12-01T04:03:01.558Z,99102.35
2018-12-01T04:05:30.182Z,99104.17
2018-12-01T04:08:00.177Z,99101.41
2018-12-01T04:10:28.667Z,99103.22
2018-12-01T04:12:57.516Z,99107.75
2018-12-01T04:15:27.080Z,99103.33
2018-12-01T04:17:55.564Z,99105.95
2018-12-01T04:20:24.144Z,99113.43
2018-12-01T04:22:52.760Z,99116.91
2018-12-01T04:25:21.596Z,99111.99
2018-12-01T04:27:51.124Z,99119.41
2018-12-01T04:30:23.507Z,99111.46
2018-12-01T04:32:53.141Z,99100.97
2018-12-01T04:35:23.404Z,99104.61
2018-12-01T04:37:53.043Z,99112.52
2018-12-01T04:40:21.565Z,99113.75
2018-12-01T04:42:50.081Z,99111.11
2018-12-01T04:45:18.945Z,99112.05
2018-12-01T04:47:47.599Z,99114.94
2018-12-01T04:50:17.363Z,99110.73
2018-12-01T04:52:46.782Z,99115.81
2018-12-01T04:55:16.505Z,99115.30
2018-12-01T04:57:45.112Z,99116.14
2018-12-01T05:00:15.215Z,99119.16
2018-12-01T05:02:43.689Z,99113.30
2018-12-01T05:05:13.649Z,99111.73
2018-12-01T05:07:42.145Z,99116.31
2018-12-01T05:10:12.759Z,99124.95
2018-12-01T05:12:41.299Z,99111.72
2018-12-01T05:15:14.927Z,99121.45
2018-12-01T05:17:43.588Z,99113.77
2018-12-01T05:20:27.835Z,99121.21
2018-12-01T05:22:56.377Z,99120.36
2018-12-01T05:25:25.207Z,99127.10
2018-12-01T05:27:53.782Z,99134.56
2018-12-01T05:30:23.236Z,99126.63
2018-12-01T05:32:51.685Z,99128.89
2018-12-01T05:35:23.358Z,99132.84
2018-12-01T05:37:51.829Z,99134.89
2018-12-01T05:40:20.918Z,99127.69
2018-12-01T05:42:49.399Z,99131.53
2018-12-01T05:45:20.255Z,99131.41
2018-12-01T05:47:48.937Z,99135.25
2018-12-01T05:50:22.260Z,99136.34
2018-12-01T05:52:51.853Z,99139.84
2018-12-01T05:55:20.999Z,99133.13
2018-12-01T05:57:49.483Z,99140.09
2018-12-01T06:00:18.760Z,99137.44
2018-12-01T06:02:47.251Z,99136.84
2018-12-01T06:05:17.038Z,99142.12
2018-12-01T06:07:46.824Z,99143.47
2018-12-01T06:10:21.397Z,99137.22
2018-12-01T06:12:51.572Z,99130.21
2018-12-01T06:15:22.410Z,99134.53
2018-12-01T06:17:50.937Z,99142.12
2018-12-01T06:20:20.734Z,99145.52
2018-12-01T06:22:49.236Z,99150.57
2018-12-01T06:25:20.066Z,99150.69
2018-12-01T06:27:48.535Z,99153.22
2018-12-01T06:30:17.957Z,99157.65
2018-12-01T06:32:47.073Z,99161.73
2018-12-01T06:35:16.207Z,99160.78
2018-12-01T06:37:44.860Z,99162.10
2018-12-01T06:40:21.086Z,99161.39
2018-12-01T06:42:49.992Z,98376.05
2018-12-01T06:45:19.256Z,99167.63
2018-12-01T06:47:47.836Z,99172.79
2018-12-01T06:50:20.735Z,99170.14
2018-12-01T06:52:49.423Z,99171.22
2018-12-01T06:55:18.788Z,99144.67
2018-12-01T06:57:47.789Z,99171.22
2018-12-01T07:00:18.531Z,99169.06
2018-12-01T07:02:47.915Z,99170.26
2018-12-01T07:05:17.831Z,99177.61
2018-12-01T07:07:46.310Z,99180.48
2018-12-01T07:10:15.697Z,99172.90
2018-12-01T07:12:45.949Z,99179.42
2018-12-01T07:15:17.224Z,99176.38
2018-12-01T07:17:45.791Z,99180.73
2018-12-01T07:20:14.388Z,99181.43
2018-12-01T07:22:42.978Z,99179.74
2018-12-01T07:25:12.927Z,99165.43
2018-12-01T07:27:41.371Z,99153.88
2018-12-01T07:30:12.025Z,99159.92
2018-12-01T07:32:42.177Z,99162.94
2018-12-01T07:35:11.445Z,99162.33
2018-12-01T07:37:40.333Z,99167.01
2018-12-01T07:40:17.082Z,99169.66
2018-12-01T07:42:45.605Z,99158.35
2018-12-01T07:45:16.518Z,99160.16
2018-12-01T07:47:45.068Z,99161.97
2018-12-01T07:50:14.595Z,99168.83
2018-12-01T07:52:44.611Z,99155.69
2018-12-01T07:55:13.095Z,99154.92
2018-12-01T07:57:41.685Z,99150.25
2018-12-01T08:00:13.432Z,99148.90
2018-12-01T08:02:42.718Z,99152.52
2018-12-01T08:05:11.959Z,99148.78
2018-12-01T08:07:41.244Z,99151.34
2018-12-01T08:10:11.600Z,99149.28
2018-12-01T08:12:40.116Z,99147.81
2018-12-01T08:15:17.814Z,99143.22
2018-12-01T08:17:47.156Z,99141.20
2018-12-01T08:20:16.655Z,99131.58
2018-12-01T08:22:45.168Z,99133.75
2018-12-01T08:25:16.497Z,99134.22
2018-12-01T08:27:46.390Z,99129.44
2018-12-01T08:30:22.322Z,99121.34
2018-12-01T08:32:50.853Z,99120.72
2018-12-01T08:35:19.664Z,99124.81
2018-12-01T08:37:48.095Z,99128.42
2018-12-01T08:40:19.685Z,99133.22
2018-12-01T08:42:48.184Z,99135.16
2018-12-01T08:45:16.662Z,99123.72
2018-12-01T08:47:45.211Z,99131.84
2018-12-01T08:50:14.881Z,99140.30
2018-12-01T08:52:44.883Z,99143.98
2018-12-01T08:55:17.054Z,99144.92
2018-12-01T08:57:45.731Z,99139.33
2018-12-01T09:00:16.412Z,99144.45
2018-12-01T09:02:45.725Z,99146.75
2018-12-01T09:05:15.491Z,99147.81
2018-12-01T09:07:44.030Z,99151.66
2018-12-01T09:10:12.553Z,99161.05
2018-12-01T09:12:41.066Z,99162.22
2018-12-01T09:15:10.862Z,99167.63
2018-12-01T09:17:39.952Z,99169.62
2018-12-01T09:20:11.646Z,99172.10
2018-12-01T09:22:42.489Z,99167.52
2018-12-01T09:25:13.120Z,99172.77
2018-12-01T09:27:42.679Z,99167.52
2018-12-01T09:30:15.549Z,99170.70
2018-12-01T09:32:44.145Z,99169.97
2018-12-01T09:35:13.149Z,99170.78
2018-12-01T09:37:41.722Z,99169.03
2018-12-01T09:40:12.978Z,99167.12
2018-12-01T09:42:41.581Z,99169.68
2018-12-01T09:45:12.306Z,99161.56
2018-12-01T09:47:41.269Z,99162.22
2018-12-01T09:50:12.845Z,99162.36
2018-12-01T09:52:41.294Z,99159.02
2018-12-01T09:55:11.792Z,99157.18
2018-12-01T09:57:41.191Z,99156.63
2018-12-01T10:00:13.973Z,99157.02
2018-12-01T10:02:42.914Z,99151.02
2018-12-01T10:05:14.513Z,99148.83
2018-12-01T10:07:42.964Z,99152.23
2018-12-01T10:10:13.668Z,99140.70
2018-12-01T10:12:42.765Z,99140.84
2018-12-01T10:15:20.073Z,99143.11
2018-12-01T10:17:48.609Z,99136.17
2018-12-01T10:20:20.477Z,99141.23
2018-12-01T10:22:49.513Z,99132.63
2018-12-01T10:25:18.573Z,99135.86
2018-12-01T10:27:47.699Z,99135.71
2018-12-01T10:30:19.320Z,99131.39
2018-12-01T10:32:48.311Z,99136.05
2018-12-01T10:35:20.134Z,99123.08
2018-12-01T10:37:51.902Z,99120.42
2018-12-01T10:40:20.495Z,99124.22
2018-12-01T10:42:49.062Z,99126.22
2018-12-01T10:45:19.878Z,99125.95
2018-12-01T10:47:48.365Z,99113.98
2018-12-01T10:50:19.127Z,99117.33
2018-12-01T10:52:49.431Z,99117.33
2018-12-01T10:55:26.890Z,99117.65
2018-12-01T10:58:18.567Z,99120.59
2018-12-01T11:00:53.267Z,99110.73
2018-12-01T11:03:27.698Z,99111.94
2018-12-01T11:05:57.629Z,99105.08
2018-12-01T11:08:26.195Z,99096.56
2018-12-01T11:10:55.385Z,99097.38
2018-12-01T11:13:23.797Z,99093.21
2018-12-01T11:15:52.304Z,99094.92
2018-12-01T11:18:20.829Z,99088.07
2018-12-01T11:20:49.359Z,99090.19
2018-12-01T11:23:18.170Z,99085.61
2018-12-01T11:25:46.600Z,99084.22
2018-12-01T11:28:16.678Z,99078.78
2018-12-01T11:30:45.165Z,99068.16
2018-12-01T11:33:14.178Z,99063.41
2018-12-01T11:35:43.250Z,99052.78
2018-12-01T11:38:12.558Z,99047.78
2018-12-01T11:40:41.152Z,99039.86
2018-12-01T11:43:11.361Z,99048.31
2018-12-01T11:45:40.114Z,99051.38
2018-12-01T11:48:09.365Z,99046.78
2018-12-01T11:50:39.059Z,99039.59
2018-12-01T11:53:07.621Z,99042.45
2018-12-01T11:55:36.172Z,99037.11
2018-12-01T11:58:04.902Z,99034.89
2018-12-01T12:00:33.433Z,99027.91
2018-12-01T12:03:02.940Z,99041.51
2018-12-01T12:05:31.941Z,99025.34
2018-12-01T12:08:17.803Z,99037.73
2018-12-01T12:10:46.444Z,99033.47
2018-12-01T12:13:16.170Z,99025.53
2018-12-01T12:15:45.083Z,99014.97
2018-12-01T12:18:14.182Z,99022.63
2018-12-01T12:20:42.764Z,99012.17
2018-12-01T12:23:11.370Z,99006.91
2018-12-01T12:25:40.739Z,99018.89
2018-12-01T12:28:10.399Z,99016.77
2018-12-01T12:30:39.715Z,99015.59
2018-12-01T12:33:08.443Z,99024.06
2018-12-01T12:35:37.846Z,99028.31
2018-12-01T12:38:07.008Z,99016.47
2018-12-01T12:40:35.782Z,99018.59
2018-12-01T12:43:04.345Z,99006.66
2018-12-01T12:45:33.838Z,98997.48
2018-12-01T12:48:02.465Z,99000.08
2018-12-01T12:50:30.944Z,98991.80
2018-12-01T12:52:59.465Z,98976.81
2018-12-01T12:55:28.294Z,98984.30
2018-12-01T12:57:57.133Z,98987.36
2018-12-01T13:00:27.234Z,98979.97
2018-12-01T13:03:14.931Z,98983.28
2018-12-01T13:05:45.469Z,98979.39
2018-12-01T13:08:15.396Z,98965.78
2018-12-01T13:10:43.944Z,98965.78
2018-12-01T13:13:13.399Z,98963.46
2018-12-01T13:15:41.937Z,98965.20
2018-12-01T13:18:15.080Z,98959.73
2018-12-01T13:20:45.052Z,98969.47
2018-12-01T13:23:14.621Z,98959.00
2018-12-01T13:25:43.427Z,98964.97
2018-12-01T13:28:22.788Z,98969.47
2018-12-01T13:30:53.702Z,98955.72
2018-12-01T13:33:23.255Z,98915.27
2018-12-01T13:35:51.781Z,98949.00
2018-12-01T13:38:20.498Z,98938.95
2018-12-01T13:40:49.098Z,98937.62
2018-12-01T13:43:18.386Z,98937.14
2018-12-01T13:45:46.915Z,98934.42
2018-12-01T13:48:15.410Z,98932.88
2018-12-01T13:50:43.972Z,98926.59
2018-12-01T13:53:13.581Z,98929.09
2018-12-01T13:55:42.112Z,98930.76
2018-12-01T13:58:12.330Z,98927.21
2018-12-01T14:00:41.734Z,98933.66
2018-12-01T14:03:10.827Z,98940.16
2018-12-01T14:05:40.602Z,98942.24
2018-12-01T14:08:09.509Z,98933.70
2018-12-01T14:10:40.594Z,98930.30
2018-12-01T14:13:12.013Z,98924.14
2018-12-01T14:15:40.523Z,98929.36
2018-12-01T14:18:09.893Z,98936.35
2018-12-01T14:20:39.729Z,98940.77
2018-12-01T14:23:08.238Z,98937.91
2018-12-01T14:25:36.857Z,98924.84
2018-12-01T14:28:07.711Z,98929.11
2018-12-01T14:30:36.286Z,98926.03
2018-12-01T14:33:04.937Z,98931.89
2018-12-01T14:35:34.825Z,98921.79
2018-12-01T14:38:16.307Z,98918.84
2018-12-01T14:40:46.901Z,98918.42
2018-12-01T14:43:15.937Z,98922.82
2018-12-01T14:45:45.831Z,98926.93
2018-12-01T14:48:14.325Z,98922.09
2018-12-01T14:50:48.386Z,98920.08
2018-12-01T14:53:12.960Z,98927.62
2018-12-01T14:55:41.475Z,98925.30
2018-12-01T14:58:10.090Z,98926.14
2018-12-01T15:00:39.061Z,98937.02
2018-12-01T15:03:08.528Z,98932.60
2018-12-01T15:05:37.981Z,98927.52
2018-12-01T15:08:07.215Z,98937.50
2018-12-01T15:10:36.110Z,98939.52
2018-12-01T15:13:05.337Z,98931.82
2018-12-01T15:15:33.799Z,98933.00
2018-12-01T15:18:02.905Z,98928.91
2018-12-01T15:20:31.532Z,98930.15
2018-12-01T15:23:01.336Z,98929.15
2018-12-01T15:25:30.501Z,98926.41
2018-12-01T15:27:59.156Z,98926.95
2018-12-01T15:30:29.357Z,98927.48
2018-12-01T15:33:10.535Z,98929.78
2018-12-01T15:35:39.400Z,98930.89
2018-12-01T15:38:08.982Z,98921.94
2018-12-01T15:40:38.357Z,98923.39
2018-12-01T15:43:08.450Z,98923.17
2018-12-01T15:45:36.981Z,98915.91
2018-12-01T15:48:06.065Z,98923.02
2018-12-01T15:50:34.603Z,98915.62
2018-12-01T15:53:03.261Z,98909.52
2018-12-01T15:55:31.797Z,98910.09
2018-12-01T15:58:00.571Z,98912.87
2018-12-01T16:00:29.156Z,98909.52
2018-12-01T16:02:58.962Z,98913.42
2018-12-01T16:05:28.081Z,98908.36
2018-12-01T16:07:59.421Z,98907.50
2018-12-01T16:10:27.961Z,98904.29
2018-12-01T16:13:14.186Z,98602.52
2018-12-01T16:15:45.843Z,98899.73
2018-12-01T16:18:14.705Z,98905.86
2018-12-01T16:20:43.256Z,98899.84
2018-12-01T16:23:12.697Z,98903.53
2018-12-01T16:25:41.882Z,98899.84
2018-12-01T16:28:10.550Z,98891.87
2018-12-01T16:30:41.242Z,98894.02
2018-12-01T16:33:13.662Z,98893.55
2018-12-01T16:35:42.163Z,98893.98
2018-12-01T16:38:22.605Z,98886.66
2018-12-01T16:40:56.573Z,98881.97
2018-12-01T16:43:25.988Z,98877.91
2018-12-01T16:45:54.765Z,98865.48
2018-12-01T16:48:23.308Z,98864.72
2018-12-01T16:50:51.867Z,98865.20
2018-12-01T16:53:21.381Z,98857.31
2018-12-01T16:55:49.854Z,98850.00
2018-12-01T16:58:18.395Z,98839.79
2018-12-01T17:00:46.813Z,98837.42
2018-12-01T17:03:16.398Z,98842.25
2018-12-01T17:05:51.085Z,98830.66
2018-12-01T17:08:19.682Z,98830.50
2018-12-01T17:10:49.070Z,98824.64
2018-12-01T17:13:19.909Z,98827.31
2018-12-01T17:15:48.389Z,98829.30
2018-12-01T17:18:16.903Z,98827.66
2018-12-01T17:20:45.414Z,98821.23
2018-12-01T17:23:15.543Z,98822.27
2018-12-01T17:25:44.024Z,98820.88
2018-12-01T17:28:15.203Z,98825.20
2018-12-01T17:30:43.913Z,98817.20
2018-12-01T17:33:12.521Z,98820.67
2018-12-01T17:35:41.020Z,98815.66
2018-12-01T17:38:11.890Z,98820.82
2018-12-01T17:40:49.431Z,98821.60
2018-12-01T17:43:21.722Z,98813.54
2018-12-01T17:45:51.161Z,98812.59
2018-12-01T17:48:20.301Z,98801.22
2018-12-01T17:50:48.841Z,98801.98
2018-12-01T17:53:17.791Z,98796.41
2018-12-01T17:55:46.335Z,98792.72
2018-12-01T17:58:15.152Z,98792.15
2018-12-01T18:00:43.684Z,98784.37
2018-12-01T18:03:12.779Z,98793.06
2018-12-01T18:05:47.300Z,98785.47
2018-12-01T18:08:19.257Z,98786.54
2018-12-01T18:10:49.328Z,98786.86
2018-12-01T18:13:19.655Z,98792.94
2018-12-01T18:15:48.212Z,98791.96
2018-12-01T18:18:16.712Z,98784.80
2018-12-01T18:20:45.729Z,98782.00
2018-12-01T18:23:16.821Z,98776.61
2018-12-01T18:25:48.116Z,98775.05
2018-12-01T18:28:20.900Z,98779.39
2018-12-01T18:30:49.754Z,98773.78
2018-12-01T18:33:24.757Z,98769.00
2018-12-01T18:35:53.337Z,98764.23
2018-12-01T18:38:21.934Z,98767.04
2018-12-01T18:40:50.528Z,98761.30
2018-12-01T18:43:19.944Z,98762.60
2018-12-01T18:45:51.217Z,98761.62
2018-12-01T18:48:19.715Z,98756.77
2018-12-01T18:50:48.329Z,98753.81
2018-12-01T18:53:17.101Z,98750.79
2018-12-01T18:55:48.827Z,98748.58
2018-12-01T18:58:17.840Z,98746.62
2018-12-01T19:00:49.683Z,98744.11
2018-12-01T19:03:19.856Z,98732.20
2018-12-01T19:05:48.382Z,98725.17
2018-12-01T19:08:18.575Z,98722.38
2018-12-01T19:10:47.723Z,98725.88
2018-12-01T19:13:16.666Z,98726.47
2018-12-01T19:15:45.155Z,98717.77
2018-12-01T19:18:14.902Z,98710.77
2018-12-01T19:20:43.458Z,98709.97
2018-12-01T19:23:13.659Z,98707.36
2018-12-01T19:25:43.845Z,98696.36
2018-12-01T19:28:12.427Z,98701.18
2018-12-01T19:30:41.150Z,98692.68
2018-12-01T19:33:17.846Z,98696.69
2018-12-01T19:35:47.522Z,98694.95
2018-12-01T19:38:19.859Z,98697.03
2018-12-01T19:40:48.783Z,98689.66
2018-12-01T19:43:18.118Z,98690.98
2018-12-01T19:45:46.691Z,98698.66
2018-12-01T19:48:15.489Z,98694.73
2018-12-01T19:50:44.069Z,98685.81
2018-12-01T19:53:14.097Z,98687.44
2018-12-01T19:55:43.462Z,98682.18
2018-12-01T19:58:17.053Z,98675.66
2018-12-01T20:00:47.600Z,98674.46
2018-12-01T20:03:19.521Z,98675.19
2018-12-01T20:05:48.063Z,98678.47
2018-12-01T20:08:18.266Z,98680.39
2018-12-01T20:10:52.837Z,98671.94
2018-12-01T20:13:27.051Z,98667.66
2018-12-01T20:16:00.727Z,98676.84
2018-12-01T20:18:29.638Z,98669.05
2018-12-01T20:20:58.261Z,98671.12
2018-12-01T20:23:28.574Z,98663.83
2018-12-01T20:25:57.177Z,98664.80
2018-12-01T20:28:25.683Z,98661.28
2018-12-01T20:30:54.231Z,98665.66
2018-12-01T20:33:23.352Z,98660.53
2018-12-01T20:35:56.979Z,98665.47
2018-12-01T20:38:30.629Z,98663.02
2018-12-01T20:40:59.138Z,98655.68
2018-12-01T20:43:28.363Z,98660.70
2018-12-01T20:45:57.623Z,98654.41
2018-12-01T20:48:26.084Z,98643.48
2018-12-01T20:50:54.611Z,98646.15
2018-12-01T20:53:23.141Z,98632.50
2018-12-01T20:55:54.159Z,98634.95
2018-12-01T20:58:23.297Z,98643.98
2018-12-01T21:00:51.775Z,98635.48
2018-12-01T21:03:20.303Z,98640.20
2018-12-01T21:05:48.851Z,98634.19
2018-12-01T21:08:17.314Z,98635.36
2018-12-01T21:10:56.331Z,98625.13
2018-12-01T21:13:25.514Z,98615.16
2018-12-01T21:15:54.015Z,98612.55
2018-12-01T21:18:22.507Z,98615.51
2018-12-01T21:20:51.144Z,98607.02
2018-12-01T21:23:19.637Z,98607.02
2018-12-01T21:25:48.149Z,98600.03
2018-12-01T21:28:17.210Z,98604.99
2018-12-01T21:30:46.894Z,98600.34
2018-12-01T21:33:20.516Z,98602.17
2018-12-01T21:35:50.054Z,98597.59
2018-12-01T21:38:18.731Z,98596.88
2018-12-01T21:40:47.266Z,98593.31
2018-12-01T21:43:16.012Z,98592.72
2018-12-01T21:45:44.543Z,98591.05
2018-12-01T21:48:14.052Z,98589.73
2018-12-01T21:50:43.366Z,98589.34
2018-12-01T21:53:28.446Z,98578.55
2018-12-01T21:55:57.022Z,98580.59
2018-12-01T21:58:25.536Z,98575.74
2018-12-01T22:00:56.333Z,98581.41
2018-12-01T22:03:26.966Z,98573.97
2018-12-01T22:05:58.326Z,98567.41
2018-12-01T22:08:27.378Z,98565.15
2018-12-01T22:10:57.223Z,98570.23
2018-12-01T22:13:26.542Z,98568.78
2018-12-01T22:15:55.322Z,98562.02
2018-12-01T22:18:24.725Z,98551.20
2018-12-01T22:20:53.472Z,98554.20
2018-12-01T22:23:22.226Z,98544.90
2018-12-01T22:25:50.816Z,98547.98
2018-12-01T22:28:20.048Z,98550.99
2018-12-01T22:30:51.582Z,98536.12
2018-12-01T22:33:23.234Z,98532.28
2018-12-01T22:35:52.534Z,98535.26
2018-12-01T22:38:21.209Z,98532.79
2018-12-01T22:40:49.702Z,98534.02
2018-12-01T22:43:18.295Z,98516.42
2018-12-01T22:45:46.816Z,98523.95
2018-12-01T22:48:17.086Z,98512.70
2018-12-01T22:50:47.274Z,98516.80
2018-12-01T22:53:15.870Z,98519.05
2018-12-01T22:55:44.805Z,98513.64
2018-12-01T22:58:14.690Z,98513.94
2018-12-01T23:00:58.879Z,98508.69
2018-12-01T23:03:32.050Z,98514.87
2018-12-01T23:06:01.224Z,98514.84
2018-12-01T23:08:31.284Z,98507.72
2018-12-01T23:10:59.953Z,98508.78
2018-12-01T23:13:28.649Z,98504.73
2018-12-01T23:15:57.246Z,98503.75
2018-12-01T23:18:26.533Z,98503.37
2018-12-01T23:20:55.013Z,98494.80
2018-12-01T23:23:23.519Z,98495.56
2018-12-01T23:25:52.170Z,98493.98
2018-12-01T23:28:20.765Z,98489.93
2018-12-01T23:30:53.967Z,98485.75
2018-12-01T23:33:23.822Z,98479.14
2018-12-01T23:35:52.497Z,98478.72
2018-12-01T23:38:21.799Z,98479.57
2018-12-01T23:40:50.422Z,98472.53
2018-12-01T23:43:19.824Z,98469.55
2018-12-01T23:45:48.435Z,98463.88
2018-12-01T23:48:17.015Z,98462.73
2018-12-01T23:50:50.354Z,98455.00
2018-12-01T23:53:19.698Z,98448.39
2018-12-01T23:55:48.195Z,98446.30
2018-12-01T23:58:16.772Z,98443.80
